createdAt,value
2019-06-26T00:00:19.127Z,9.80
2019-06-26T00:02:48.589Z,8.97
2019-06-26T00:05:18.504Z,9.10
2019-06-26T00:07:48.622Z,10.30
2019-06-26T00:10:18.309Z,10.23
2019-06-26T00:12:49.592Z,9.70
2019-06-26T00:15:19.342Z,10.57
2019-06-26T00:17:48.801Z,9.50
2019-06-26T00:20:19.805Z,11.07
2019-06-26T00:22:49.658Z,11.20
2019-06-26T00:25:19.393Z,10.70
2019-06-26T00:27:49.005Z,11.40
2019-06-26T00:30:19.135Z,10.93
2019-06-26T00:32:48.843Z,12.50
2019-06-26T00:35:18.387Z,12.57
2019-06-26T00:37:47.877Z,11.57
2019-06-26T00:40:17.708Z,11.60
2019-06-26T00:42:47.254Z,12.13
2019-06-26T00:45:17.826Z,12.20
2019-06-26T00:47:47.418Z,11.80
2019-06-26T00:50:17.480Z,12.20
2019-06-26T00:52:46.970Z,12.27
2019-06-26T00:55:17.020Z,12.00
2019-06-26T00:57:46.852Z,12.73
2019-06-26T01:00:18.197Z,11.40
2019-06-26T01:02:47.669Z,12.40
2019-06-26T01:05:17.308Z,13.57
2019-06-26T01:07:46.828Z,13.70
2019-06-26T01:10:17.128Z,12.53
2019-06-26T01:12:46.673Z,14.13
2019-06-26T01:15:16.653Z,13.13
2019-06-26T01:17:46.153Z,13.20
2019-06-26T01:20:15.926Z,13.40
2019-06-26T01:22:45.391Z,12.90
2019-06-26T01:25:15.885Z,13.73
2019-06-26T01:27:45.364Z,13.30
2019-06-26T01:30:15.839Z,13.30
2019-06-26T01:32:45.333Z,13.90
2019-06-26T01:35:15.032Z,12.73
2019-06-26T01:37:44.536Z,14.70
2019-06-26T01:40:14.361Z,14.23
2019-06-26T01:42:43.862Z,15.30
2019-06-26T01:45:13.660Z,12.40
2019-06-26T01:47:43.162Z,14.63
2019-06-26T01:50:14.200Z,13.23
2019-06-26T01:52:43.667Z,12.90
2019-06-26T01:55:13.591Z,12.50
2019-06-26T01:57:43.062Z,12.63
2019-06-26T02:00:13.792Z,14.33
2019-06-26T02:02:43.446Z,15.00
2019-06-26T02:05:13.078Z,12.63
2019-06-26T02:07:42.564Z,14.07
2019-06-26T02:10:13.717Z,14.33
2019-06-26T02:12:43.182Z,13.30
2019-06-26T02:15:13.878Z,13.80
2019-06-26T02:17:43.449Z,14.07
2019-06-26T02:20:13.740Z,14.40
2019-06-26T02:22:43.230Z,13.60
2019-06-26T02:25:13.201Z,14.10
2019-06-26T02:27:42.754Z,13.60
2019-06-26T02:30:12.555Z,13.93
2019-06-26T02:32:42.078Z,14.50
2019-06-26T02:35:11.994Z,14.40
2019-06-26T02:37:41.448Z,13.90
2019-06-26T02:40:11.718Z,13.97
2019-06-26T02:42:41.144Z,12.73
2019-06-26T02:45:11.182Z,12.67
2019-06-26T02:47:40.908Z,14.57
2019-06-26T02:50:12.183Z,13.63
2019-06-26T02:52:41.676Z,14.20
2019-06-26T02:55:11.599Z,13.43
2019-06-26T02:57:41.090Z,13.30
2019-06-26T03:00:11.682Z,14.77
2019-06-26T03:02:41.346Z,13.83
2019-06-26T03:05:10.960Z,14.67
2019-06-26T03:07:40.453Z,14.03
2019-06-26T03:10:10.481Z,15.47
2019-06-26T03:12:40.015Z,15.40
2019-06-26T03:15:10.202Z,14.13
2019-06-26T03:17:54.205Z,13.73
2019-06-26T03:20:11.270Z,14.60
2019-06-26T03:22:40.934Z,13.90
2019-06-26T03:25:11.072Z,15.27
2019-06-26T03:27:40.708Z,15.10
2019-06-26T03:30:10.741Z,14.67
2019-06-26T03:32:40.245Z,14.37
2019-06-26T03:35:10.170Z,14.97
2019-06-26T03:37:39.652Z,15.17
2019-06-26T03:40:10.889Z,14.10
2019-06-26T03:42:40.444Z,15.57
2019-06-26T03:45:24.495Z,14.53
2019-06-26T03:47:41.572Z,14.63
2019-06-26T03:50:11.580Z,16.00
2019-06-26T03:52:41.205Z,14.67
2019-06-26T03:55:12.134Z,14.27
2019-06-26T03:57:41.581Z,15.20
2019-06-26T04:00:12.054Z,15.80
2019-06-26T04:02:41.825Z,16.60
2019-06-26T04:05:11.519Z,16.77
2019-06-26T04:07:41.069Z,16.97
2019-06-26T04:10:10.783Z,15.80
2019-06-26T04:12:40.936Z,16.50
2019-06-26T04:15:10.898Z,16.03
2019-06-26T04:17:40.390Z,16.43
2019-06-26T04:20:10.388Z,16.70
2019-06-26T04:22:39.873Z,17.90
2019-06-26T04:25:10.078Z,17.13
2019-06-26T04:27:39.647Z,16.53
2019-06-26T04:30:10.636Z,16.60
2019-06-26T04:32:40.589Z,19.47
2019-06-26T04:35:10.440Z,16.90
2019-06-26T04:37:39.913Z,17.63
2019-06-26T04:40:10.668Z,17.53
2019-06-26T04:42:40.306Z,16.83
2019-06-26T04:45:10.304Z,16.60
2019-06-26T04:47:39.844Z,16.43
2019-06-26T04:50:10.504Z,15.70
2019-06-26T04:52:40.186Z,17.43
2019-06-26T04:55:10.298Z,16.63
2019-06-26T04:57:39.841Z,16.70
2019-06-26T05:00:10.100Z,16.47
2019-06-26T05:02:39.750Z,15.80
2019-06-26T05:05:10.969Z,16.30
2019-06-26T05:07:40.663Z,18.97
2019-06-26T05:10:11.596Z,17.73
2019-06-26T05:12:41.161Z,19.10
2019-06-26T05:15:11.281Z,18.80
2019-06-26T05:17:40.950Z,20.90
2019-06-26T05:20:11.214Z,20.27
2019-06-26T05:22:40.760Z,19.63
2019-06-26T05:25:11.431Z,20.47
2019-06-26T05:27:41.386Z,21.40
2019-06-26T05:30:13.262Z,22.17
2019-06-26T05:32:42.777Z,23.53
2019-06-26T05:35:12.768Z,23.87
2019-06-26T05:37:42.336Z,24.87
2019-06-26T05:40:13.218Z,22.60
2019-06-26T05:42:42.783Z,24.10
2019-06-26T05:45:13.967Z,25.10
2019-06-26T05:47:43.540Z,27.90
2019-06-26T05:50:15.764Z,27.87
2019-06-26T05:52:45.872Z,27.90
2019-06-26T05:55:15.719Z,29.27
2019-06-26T05:57:48.305Z,28.50
2019-06-26T06:00:18.142Z,29.93
2019-06-26T06:02:47.657Z,30.03
2019-06-26T06:05:17.972Z,31.97
2019-06-26T06:07:47.555Z,32.00
2019-06-26T06:10:17.376Z,30.73
2019-06-26T06:12:47.042Z,33.60
2019-06-26T06:15:17.252Z,34.30
2019-06-26T06:17:46.760Z,31.50
2019-06-26T06:20:19.824Z,33.80
2019-06-26T06:22:49.366Z,31.30
2019-06-26T06:25:18.920Z,30.00
2019-06-26T06:27:48.395Z,32.27
2019-06-26T06:30:18.287Z,32.80
2019-06-26T06:32:47.855Z,34.73
2019-06-26T06:35:17.387Z,33.27
2019-06-26T06:37:46.892Z,32.17
2019-06-26T06:40:16.895Z,30.53
2019-06-26T06:42:46.378Z,32.50
2019-06-26T06:45:16.379Z,32.17
2019-06-26T06:47:45.853Z,30.90
2019-06-26T06:50:15.594Z,32.20
2019-06-26T06:52:45.256Z,33.50
2019-06-26T06:55:14.917Z,32.53
2019-06-26T06:57:44.434Z,33.83
2019-06-26T07:00:14.828Z,35.93
2019-06-26T07:02:44.382Z,32.80
2019-06-26T07:05:14.791Z,34.83
2019-06-26T07:07:44.497Z,32.60
2019-06-26T07:10:14.607Z,32.90
2019-06-26T07:12:44.448Z,31.67
2019-06-26T07:15:14.244Z,31.20
2019-06-26T07:17:43.888Z,32.80
2019-06-26T07:20:14.465Z,33.30
2019-06-26T07:22:44.063Z,32.27
2019-06-26T07:25:15.655Z,31.97
2019-06-26T07:27:45.231Z,33.63
2019-06-26T07:30:15.804Z,32.80
2019-06-26T07:32:45.411Z,32.27
2019-06-26T07:35:15.065Z,31.23
2019-06-26T07:37:44.645Z,32.00
2019-06-26T07:40:15.028Z,32.00
2019-06-26T07:42:44.758Z,31.33
2019-06-26T07:45:14.875Z,29.70
2019-06-26T07:47:44.487Z,27.63
2019-06-26T07:50:14.518Z,25.97
2019-06-26T07:52:43.993Z,23.60
2019-06-26T07:55:13.484Z,22.47
2019-06-26T07:57:42.980Z,18.37
2019-06-26T08:00:13.836Z,21.60
2019-06-26T08:02:43.390Z,19.60
2019-06-26T08:05:13.139Z,19.63
2019-06-26T08:07:42.895Z,17.93
2019-06-26T08:10:13.795Z,17.63
2019-06-26T08:12:43.280Z,20.60
2019-06-26T08:15:14.210Z,20.27
2019-06-26T08:17:59.268Z,24.07
2019-06-26T08:20:17.664Z,22.53
2019-06-26T08:22:47.230Z,22.80
2019-06-26T08:25:18.617Z,24.83
2019-06-26T08:27:48.358Z,25.60
2019-06-26T08:30:18.422Z,21.80
2019-06-26T08:32:48.119Z,19.60
2019-06-26T08:35:18.398Z,17.93
2019-06-26T08:37:47.931Z,19.93
2019-06-26T08:40:18.411Z,20.77
2019-06-26T08:42:47.976Z,17.67
2019-06-26T08:45:18.833Z,19.20
2019-06-26T08:47:48.344Z,15.37
2019-06-26T08:50:18.160Z,18.90
2019-06-26T08:52:47.658Z,16.90
2019-06-26T08:55:17.733Z,19.37
2019-06-26T08:57:47.203Z,18.60
2019-06-26T09:00:17.829Z,16.30
2019-06-26T09:02:47.528Z,15.23
2019-06-26T09:05:17.437Z,14.60
2019-06-26T09:07:47.010Z,14.47
2019-06-26T09:10:17.283Z,14.87
2019-06-26T09:12:46.802Z,13.33
2019-06-26T09:15:16.500Z,11.63
2019-06-26T09:17:46.080Z,11.77
2019-06-26T09:20:22.897Z,11.63
2019-06-26T09:22:52.852Z,12.40
2019-06-26T09:25:22.770Z,12.60
2019-06-26T09:27:52.387Z,14.03
2019-06-26T09:30:23.327Z,12.33
2019-06-26T09:32:52.922Z,12.97
2019-06-26T09:35:22.465Z,12.43
2019-06-26T09:37:52.032Z,12.40
2019-06-26T09:40:21.996Z,12.07
2019-06-26T09:42:51.617Z,13.30
2019-06-26T09:45:22.087Z,12.27
2019-06-26T09:47:51.581Z,12.23
2019-06-26T09:50:22.127Z,11.80
2019-06-26T09:52:51.616Z,14.27
2019-06-26T09:55:42.287Z,15.13
2019-06-26T09:58:13.461Z,12.97
2019-06-26T10:00:43.235Z,13.70
2019-06-26T10:03:12.886Z,12.30
2019-06-26T10:05:42.989Z,13.33
2019-06-26T10:08:12.586Z,12.40
2019-06-26T10:10:42.127Z,12.20
2019-06-26T10:13:11.634Z,11.63
2019-06-26T10:15:41.237Z,13.20
2019-06-26T10:18:10.789Z,12.60
2019-06-26T10:20:40.367Z,14.33
2019-06-26T10:23:10.033Z,14.97
2019-06-26T10:25:39.516Z,17.00
2019-06-26T10:28:09.153Z,17.40
2019-06-26T10:30:38.810Z,17.27
2019-06-26T10:33:08.325Z,16.40
2019-06-26T10:35:37.939Z,15.10
2019-06-26T10:38:07.469Z,14.80
2019-06-26T10:40:36.971Z,16.20
2019-06-26T10:43:06.537Z,14.80
2019-06-26T10:45:36.403Z,15.40
2019-06-26T10:48:06.342Z,13.97
2019-06-26T10:50:48.252Z,15.60
2019-06-26T10:53:07.190Z,14.40
2019-06-26T10:55:36.948Z,13.97
2019-06-26T10:58:06.538Z,11.93
2019-06-26T11:00:36.387Z,13.33
2019-06-26T11:03:06.283Z,14.03
2019-06-26T11:05:35.949Z,14.93
2019-06-26T11:08:05.825Z,18.20
2019-06-26T11:10:35.293Z,15.17
2019-06-26T11:13:04.880Z,14.97
2019-06-26T11:15:34.359Z,14.50
2019-06-26T11:18:03.904Z,13.07
2019-06-26T11:20:33.401Z,13.40
2019-06-26T11:23:02.933Z,14.43
2019-06-26T11:25:32.409Z,14.93
2019-06-26T11:28:01.967Z,15.60
2019-06-26T11:30:31.682Z,13.13
2019-06-26T11:33:01.341Z,13.63
2019-06-26T11:35:30.935Z,12.60
2019-06-26T11:38:00.442Z,10.60
2019-06-26T11:40:29.995Z,11.70
2019-06-26T11:42:59.580Z,14.20
2019-06-26T11:45:29.074Z,12.20
2019-06-26T11:47:58.573Z,11.43
2019-06-26T11:50:28.475Z,12.60
2019-06-26T11:52:58.009Z,14.40
2019-06-26T11:55:27.552Z,13.17
2019-06-26T11:57:57.233Z,11.87
2019-06-26T12:00:27.372Z,11.83
2019-06-26T12:02:57.082Z,11.20
2019-06-26T12:05:26.944Z,11.60
2019-06-26T12:07:56.421Z,17.30
2019-06-26T12:10:26.166Z,14.93
2019-06-26T12:12:55.874Z,15.23
2019-06-26T12:15:26.118Z,15.00
2019-06-26T12:17:55.592Z,15.27
2019-06-26T12:20:25.198Z,14.47
2019-06-26T12:22:54.762Z,12.50
2019-06-26T12:25:24.237Z,15.20
2019-06-26T12:27:53.767Z,15.70
2019-06-26T12:30:24.105Z,16.00
2019-06-26T12:33:03.053Z,17.23
2019-06-26T12:35:25.117Z,17.60
2019-06-26T12:37:54.650Z,18.00
2019-06-26T12:40:24.440Z,17.00
2019-06-26T12:42:55.625Z,15.17
2019-06-26T12:45:25.290Z,16.17
2019-06-26T12:47:54.944Z,18.30
2019-06-26T12:50:35.334Z,17.10
2019-06-26T12:52:58.057Z,19.93
2019-06-26T12:55:27.590Z,22.70
2019-06-26T12:58:11.659Z,20.57
2019-06-26T13:00:28.557Z,21.30
2019-06-26T13:02:58.201Z,22.53
2019-06-26T13:05:27.974Z,23.20
2019-06-26T13:07:57.766Z,20.50
2019-06-26T13:10:27.597Z,23.03
2019-06-26T13:12:57.153Z,21.33
2019-06-26T13:15:26.754Z,21.03
2019-06-26T13:17:56.214Z,21.40
2019-06-26T13:20:25.907Z,23.47
2019-06-26T13:22:55.481Z,21.00
2019-06-26T13:25:25.039Z,22.23
2019-06-26T13:27:54.629Z,21.80
2019-06-26T13:30:39.553Z,23.50
2019-06-26T13:33:09.222Z,24.10
2019-06-26T13:35:38.975Z,21.23
2019-06-26T13:38:09.030Z,21.20
2019-06-26T13:40:40.919Z,23.90
2019-06-26T13:43:09.814Z,24.17
2019-06-26T13:45:39.333Z,20.53
2019-06-26T13:48:08.866Z,23.40
2019-06-26T13:50:38.343Z,21.17
2019-06-26T13:53:07.896Z,19.93
2019-06-26T13:55:37.584Z,22.90
2019-06-26T13:58:07.120Z,21.93
2019-06-26T14:00:36.625Z,20.67
2019-06-26T14:03:07.302Z,19.60
2019-06-26T14:05:36.885Z,17.50
2019-06-26T14:08:06.435Z,16.83
2019-06-26T14:10:35.999Z,18.60
2019-06-26T14:13:05.687Z,15.63
2019-06-26T14:15:35.306Z,14.50
2019-06-26T14:18:05.096Z,15.90
2019-06-26T14:20:34.677Z,15.33
2019-06-26T14:23:04.227Z,15.43
2019-06-26T14:25:33.737Z,14.83
2019-06-26T14:28:03.241Z,14.77
2019-06-26T14:30:32.729Z,15.27
2019-06-26T14:33:02.459Z,14.20
2019-06-26T14:35:32.275Z,12.77
2019-06-26T14:38:01.781Z,14.50
2019-06-26T14:40:31.388Z,15.40
2019-06-26T14:43:00.913Z,16.07
2019-06-26T14:45:30.602Z,13.97
2019-06-26T14:48:00.140Z,14.30
2019-06-26T14:50:29.735Z,14.30
2019-06-26T14:52:59.274Z,14.63
2019-06-26T14:55:28.725Z,15.33
2019-06-26T14:57:58.232Z,14.00
2019-06-26T15:00:27.969Z,14.93
2019-06-26T15:02:57.875Z,16.73
2019-06-26T15:05:27.617Z,14.27
2019-06-26T15:07:57.351Z,13.77
2019-06-26T15:10:26.983Z,13.60
2019-06-26T15:12:56.711Z,14.20
2019-06-26T15:15:26.405Z,13.73
2019-06-26T15:17:56.211Z,13.57
2019-06-26T15:20:25.798Z,13.17
2019-06-26T15:22:58.645Z,12.60
2019-06-26T15:25:26.685Z,14.50
2019-06-26T15:27:56.185Z,13.50
2019-06-26T15:30:25.926Z,13.63
2019-06-26T15:32:55.690Z,12.90
2019-06-26T15:35:25.196Z,12.90
2019-06-26T15:37:54.870Z,13.67
2019-06-26T15:40:24.526Z,13.83
2019-06-26T15:42:54.201Z,14.23
2019-06-26T15:45:24.150Z,13.60
2019-06-26T15:47:53.680Z,13.60
2019-06-26T15:50:23.296Z,13.50
2019-06-26T15:52:52.867Z,11.83
2019-06-26T15:55:22.356Z,12.70
2019-06-26T15:57:52.085Z,11.20
2019-06-26T16:00:42.142Z,12.27
2019-06-26T16:03:12.171Z,10.77
2019-06-26T16:05:41.728Z,11.10
2019-06-26T16:08:11.270Z,10.03
2019-06-26T16:10:40.780Z,11.30
2019-06-26T16:13:10.292Z,11.47
2019-06-26T16:15:40.185Z,10.00
2019-06-26T16:18:17.046Z,11.33
2019-06-26T16:20:46.521Z,10.53
2019-06-26T16:23:16.184Z,10.50
2019-06-26T16:25:45.952Z,9.90
2019-06-26T16:28:15.666Z,11.40
2019-06-26T16:30:45.161Z,9.30
2019-06-26T16:33:14.704Z,20.40
2019-06-26T16:35:44.212Z,10.77
2019-06-26T16:38:14.067Z,9.97
2019-06-26T16:40:43.650Z,9.77
2019-06-26T16:43:13.313Z,8.47
2019-06-26T16:45:43.012Z,10.43
2019-06-26T16:48:12.543Z,9.90
2019-06-26T16:50:42.531Z,9.10
2019-06-26T16:53:12.012Z,9.30
2019-06-26T16:55:41.525Z,9.20
2019-06-26T16:58:11.294Z,9.67
2019-06-26T17:00:40.959Z,10.10
2019-06-26T17:03:10.481Z,10.43
2019-06-26T17:05:40.297Z,9.80
2019-06-26T17:08:09.857Z,10.30
2019-06-26T17:10:39.519Z,10.50
2019-06-26T17:13:09.166Z,11.00
2019-06-26T17:15:38.767Z,11.20
2019-06-26T17:18:08.491Z,10.87
2019-06-26T17:20:38.038Z,12.47
2019-06-26T17:23:07.686Z,10.43
2019-06-26T17:25:37.211Z,11.50
2019-06-26T17:28:07.006Z,11.20
2019-06-26T17:30:36.659Z,11.00
2019-06-26T17:33:06.210Z,9.97
2019-06-26T17:35:35.857Z,11.07
2019-06-26T17:38:05.469Z,9.57
2019-06-26T17:40:35.164Z,9.57
2019-06-26T17:43:12.219Z,9.47
2019-06-26T17:45:36.241Z,9.37
2019-06-26T17:48:05.856Z,8.90
2019-06-26T17:50:35.348Z,7.80
2019-06-26T17:53:17.490Z,7.50
2019-06-26T17:55:36.207Z,8.30
2019-06-26T17:58:05.882Z,8.80
2019-06-26T18:00:37.379Z,8.70
2019-06-26T18:03:06.951Z,7.80
2019-06-26T18:05:36.513Z,8.43
2019-06-26T18:08:06.476Z,8.17
2019-06-26T18:10:36.312Z,8.17
2019-06-26T18:13:05.966Z,7.50
2019-06-26T18:15:35.819Z,8.43
2019-06-26T18:18:05.744Z,7.97
2019-06-26T18:20:35.551Z,8.80
2019-06-26T18:23:07.516Z,9.00
2019-06-26T18:25:36.543Z,8.00
2019-06-26T18:28:06.217Z,7.57
2019-06-26T18:30:35.924Z,8.23
2019-06-26T18:33:05.935Z,9.17
2019-06-26T18:35:35.475Z,8.20
2019-06-26T18:38:05.323Z,8.43
2019-06-26T18:40:34.985Z,7.13
2019-06-26T18:43:04.776Z,7.93
2019-06-26T18:45:34.551Z,7.90
2019-06-26T18:48:04.275Z,7.63
2019-06-26T18:50:33.919Z,7.77
2019-06-26T18:53:03.818Z,8.07
2019-06-26T18:55:33.391Z,7.77
2019-06-26T18:58:02.879Z,7.30
2019-06-26T19:00:32.635Z,7.40
2019-06-26T19:03:02.207Z,7.67
2019-06-26T19:05:31.753Z,8.47
2019-06-26T19:08:01.246Z,7.20
2019-06-26T19:10:30.952Z,8.00
2019-06-26T19:13:00.701Z,6.87
2019-06-26T19:15:30.318Z,8.67
2019-06-26T19:17:59.871Z,8.73
2019-06-26T19:20:29.532Z,8.10
2019-06-26T19:22:59.219Z,8.40
2019-06-26T19:25:29.524Z,9.10
2019-06-26T19:27:59.095Z,7.90
2019-06-26T19:30:28.669Z,8.10
2019-06-26T19:32:58.168Z,7.20
2019-06-26T19:35:27.766Z,8.00
2019-06-26T19:37:57.353Z,7.30
2019-06-26T19:40:27.013Z,6.63
2019-06-26T19:42:56.545Z,6.03
2019-06-26T19:45:26.288Z,6.63
2019-06-26T19:47:55.831Z,6.43
2019-06-26T19:50:25.367Z,6.80
2019-06-26T19:52:54.865Z,7.13
2019-06-26T19:55:24.357Z,6.50
2019-06-26T19:57:53.854Z,5.90
2019-06-26T20:00:23.797Z,6.53
2019-06-26T20:02:53.506Z,4.77
2019-06-26T20:05:23.171Z,5.00
2019-06-26T20:07:52.836Z,4.70
2019-06-26T20:10:24.640Z,4.40
2019-06-26T20:12:54.483Z,5.73
2019-06-26T20:15:23.989Z,4.80
2019-06-26T20:17:53.510Z,4.40
2019-06-26T20:20:23.014Z,4.53
2019-06-26T20:22:52.608Z,4.70
2019-06-26T20:25:22.142Z,4.37
2019-06-26T20:27:56.994Z,4.53
2019-06-26T20:30:27.617Z,4.30
2019-06-26T20:32:57.089Z,4.00
2019-06-26T20:35:26.594Z,4.20
2019-06-26T20:37:56.259Z,4.00
2019-06-26T20:40:25.745Z,4.20
2019-06-26T20:42:55.413Z,4.03
2019-06-26T20:45:25.200Z,4.00
2019-06-26T20:47:54.712Z,4.23
2019-06-26T20:50:24.217Z,4.80
2019-06-26T20:52:53.746Z,3.33
2019-06-26T20:55:23.382Z,4.43
2019-06-26T20:57:53.189Z,4.50
2019-06-26T21:00:22.845Z,4.30
2019-06-26T21:02:54.272Z,4.40
2019-06-26T21:05:24.353Z,4.57
2019-06-26T21:07:53.889Z,4.47
2019-06-26T21:10:23.386Z,4.57
2019-06-26T21:12:52.976Z,4.20
2019-06-26T21:15:22.561Z,4.30
2019-06-26T21:17:52.060Z,4.97
2019-06-26T21:20:21.571Z,5.20
2019-06-26T21:22:51.448Z,4.10
2019-06-26T21:25:20.942Z,4.43
2019-06-26T21:27:50.487Z,5.10
2019-06-26T21:30:21.413Z,5.43
2019-06-26T21:32:50.935Z,5.30
2019-06-26T21:35:26.163Z,4.30
2019-06-26T21:38:15.066Z,4.90
2019-06-26T21:40:44.529Z,4.60
2019-06-26T21:43:14.149Z,4.40
2019-06-26T21:45:43.809Z,4.30
2019-06-26T21:48:13.326Z,4.03
2019-06-26T21:50:42.779Z,3.63
2019-06-26T21:53:12.367Z,3.50
2019-06-26T21:55:41.825Z,3.67
2019-06-26T21:58:11.422Z,4.13
2019-06-26T22:00:41.355Z,4.20
2019-06-26T22:03:11.501Z,3.93
2019-06-26T22:05:41.149Z,3.97
2019-06-26T22:08:10.717Z,4.90
2019-06-26T22:10:40.272Z,4.50
2019-06-26T22:13:10.204Z,4.27
2019-06-26T22:15:40.817Z,3.63
2019-06-26T22:18:10.317Z,3.60
2019-06-26T22:20:39.815Z,4.20
2019-06-26T22:23:09.295Z,3.60
2019-06-26T22:25:50.424Z,2.97
2019-06-26T22:28:10.067Z,3.37
2019-06-26T22:30:39.685Z,3.23
2019-06-26T22:33:09.349Z,3.50
2019-06-26T22:35:39.042Z,3.63
2019-06-26T22:38:08.688Z,2.93
2019-06-26T22:40:38.256Z,3.43
2019-06-26T22:43:07.746Z,3.20
2019-06-26T22:45:37.531Z,3.17
2019-06-26T22:48:07.085Z,3.23
2019-06-26T22:50:36.570Z,2.90
2019-06-26T22:53:06.224Z,4.07
2019-06-26T22:55:35.765Z,3.23
2019-06-26T22:58:05.714Z,2.90
2019-06-26T23:00:35.326Z,2.93
2019-06-26T23:03:04.873Z,2.80
2019-06-26T23:05:34.540Z,3.33
2019-06-26T23:08:04.027Z,2.60
2019-06-26T23:10:33.754Z,2.93
2019-06-26T23:13:03.400Z,3.33
2019-06-26T23:15:33.107Z,2.63
2019-06-26T23:18:02.611Z,3.90
2019-06-26T23:20:32.091Z,2.90
2019-06-26T23:23:01.569Z,3.00
2019-06-26T23:25:31.067Z,3.70
2019-06-26T23:28:00.563Z,2.93
2019-06-26T23:30:30.185Z,2.87
2019-06-26T23:32:59.656Z,2.87
2019-06-26T23:35:29.306Z,4.03
2019-06-26T23:37:58.824Z,3.30
2019-06-26T23:40:28.496Z,3.03
2019-06-26T23:42:57.973Z,2.93
2019-06-26T23:45:27.491Z,2.80
2019-06-26T23:47:56.968Z,3.20
2019-06-26T23:50:26.486Z,2.80
2019-06-26T23:52:56.057Z,3.40
2019-06-26T23:55:25.579Z,3.07
2019-06-26T23:57:59.473Z,3.67
